createdAt,value
2023-03-10T00:04:02.325Z,4.28
2023-03-10T00:09:06.407Z,4.29
2023-03-10T00:14:11.850Z,4.32
2023-03-10T00:19:16.374Z,4.40
2023-03-10T00:24:20.864Z,4.46
2023-03-10T00:29:26.333Z,4.49
2023-03-10T00:34:31.146Z,4.55
2023-03-10T00:39:35.045Z,4.61
2023-03-10T00:44:42.502Z,4.71
2023-03-10T00:49:46.393Z,4.83
2023-03-10T00:54:51.625Z,4.95
2023-03-10T00:59:56.876Z,5.06
2023-03-10T01:05:01.052Z,5.17
2023-03-10T01:10:05.765Z,5.20
2023-03-10T01:15:13.134Z,5.25
2023-03-10T01:20:18.969Z,5.30
2023-03-10T01:25:23.084Z,5.41
2023-03-10T01:30:28.697Z,5.58
2023-03-10T01:35:32.878Z,5.76
2023-03-10T01:40:37.660Z,5.84
2023-03-10T01:46:30.286Z,5.85
2023-03-10T01:51:40.748Z,5.94
2023-03-10T01:56:45.291Z,6.03
2023-03-10T02:01:51.811Z,6.13
2023-03-10T02:06:58.950Z,6.16
2023-03-10T02:12:04.683Z,6.17
2023-03-10T02:17:13.936Z,6.23
2023-03-10T02:22:19.687Z,6.24
2023-03-10T02:27:27.393Z,6.27
2023-03-10T02:32:34.417Z,6.27
2023-03-10T02:37:38.808Z,6.26
2023-03-10T02:42:44.377Z,6.22
2023-03-10T02:47:48.432Z,6.17
2023-03-10T02:52:57.017Z,6.10
2023-03-10T02:58:03.801Z,6.05
2023-03-10T03:03:08.387Z,5.99
2023-03-10T03:08:12.716Z,5.94
2023-03-10T03:13:18.187Z,5.94
2023-03-10T03:18:22.561Z,5.94
2023-03-10T03:23:27.168Z,5.98
2023-03-10T03:28:32.799Z,5.97
2023-03-10T03:33:37.693Z,5.97
2023-03-10T03:38:41.763Z,6.02
2023-03-10T03:43:47.271Z,6.03
2023-03-10T03:48:51.657Z,5.97
2023-03-10T03:53:55.963Z,6.00
2023-03-10T03:59:01.946Z,6.04
2023-03-10T04:04:06.672Z,6.05
2023-03-10T04:09:11.304Z,6.10
2023-03-10T04:14:17.651Z,6.13
2023-03-10T04:19:21.866Z,6.17
2023-03-10T04:24:29.890Z,6.17
2023-03-10T04:29:35.943Z,6.15
2023-03-10T04:34:40.664Z,6.15
2023-03-10T04:39:45.089Z,6.13
2023-03-10T04:44:52.088Z,6.12
2023-03-10T04:49:56.492Z,6.10
2023-03-10T04:55:00.618Z,6.04
2023-03-10T05:00:08.224Z,5.99
2023-03-10T05:05:13.214Z,5.96
2023-03-10T05:10:21.219Z,5.92
2023-03-10T05:15:26.927Z,5.89
2023-03-10T05:20:31.090Z,5.89
2023-03-10T05:25:37.380Z,5.86
2023-03-10T05:30:42.918Z,5.83
2023-03-10T05:35:47.338Z,5.88
2023-03-10T05:40:51.527Z,5.93
2023-03-10T05:45:59.519Z,5.99
2023-03-10T05:51:09.040Z,6.08
2023-03-10T05:56:16.188Z,6.16
2023-03-10T06:01:22.890Z,6.25
2023-03-10T06:06:26.951Z,6.36
2023-03-10T06:11:31.108Z,6.46
2023-03-10T06:16:36.429Z,6.63
2023-03-10T06:21:40.491Z,6.85
2023-03-10T06:26:44.981Z,7.01
2023-03-10T06:31:50.428Z,7.18
2023-03-10T06:36:56.006Z,7.32
2023-03-10T06:42:01.493Z,7.45
2023-03-10T06:47:07.342Z,7.55
2023-03-10T06:52:11.234Z,7.68
2023-03-10T06:57:15.105Z,7.78
2023-03-10T07:02:20.808Z,7.89
2023-03-10T07:07:24.941Z,8.00
2023-03-10T07:12:28.888Z,8.22
2023-03-10T07:17:34.678Z,8.40
2023-03-10T07:22:38.869Z,8.61
2023-03-10T07:27:43.573Z,8.77
2023-03-10T07:32:48.867Z,9.07
2023-03-10T07:37:52.972Z,9.25
2023-03-10T07:42:56.887Z,9.33
2023-03-10T07:48:04.852Z,9.48
2023-03-10T07:53:08.720Z,9.72
2023-03-10T07:58:12.620Z,9.94
2023-03-10T08:03:18.241Z,10.02
2023-03-10T08:08:23.317Z,10.03
2023-03-10T08:13:27.471Z,10.00
2023-03-10T08:18:32.866Z,10.19
2023-03-10T08:23:37.981Z,10.45
2023-03-10T08:28:42.924Z,10.73
2023-03-10T08:33:49.120Z,11.13
2023-03-10T08:38:54.469Z,11.31
2023-03-10T08:43:59.890Z,11.46
2023-03-10T08:49:05.143Z,11.94
2023-03-10T08:54:10.116Z,12.22
2023-03-10T08:59:14.440Z,12.17
2023-03-10T09:04:20.314Z,12.14
2023-03-10T09:09:24.198Z,12.49
2023-03-10T09:14:28.349Z,12.80
2023-03-10T09:19:33.920Z,12.96
2023-03-10T09:24:37.998Z,12.88
2023-03-10T09:29:43.590Z,12.82
2023-03-10T09:34:49.421Z,12.95
2023-03-10T09:39:53.616Z,13.05
2023-03-10T09:45:05.196Z,13.13
2023-03-10T09:50:23.895Z,13.18
2023-03-10T09:55:30.334Z,13.32
2023-03-10T10:00:39.685Z,13.41
2023-03-10T10:05:46.795Z,13.56
2023-03-10T10:10:53.802Z,13.42
2023-03-10T10:16:21.443Z,13.57
2023-03-10T10:21:41.719Z,13.56
2023-03-10T10:26:46.306Z,13.19
2023-03-10T10:32:08.889Z,12.83
2023-03-10T10:37:28.413Z,12.99
2023-03-10T10:42:35.235Z,13.37
2023-03-10T10:47:49.220Z,13.73
2023-03-10T10:53:16.971Z,14.17
2023-03-10T10:58:28.447Z,14.63
2023-03-10T11:03:34.949Z,14.52
2023-03-10T11:08:42.973Z,14.60
2023-03-10T11:14:01.448Z,14.94
2023-03-10T11:19:09.874Z,14.92
2023-03-10T11:24:21.650Z,14.84
2023-03-10T11:29:35.165Z,14.69
2023-03-10T11:34:43.134Z,14.48
2023-03-10T11:39:54.224Z,14.39
2023-03-10T11:45:05.434Z,14.62
2023-03-10T11:50:18.206Z,14.81
2023-03-10T11:55:23.997Z,14.81
2023-03-10T12:00:31.620Z,15.03
2023-03-10T12:05:43.793Z,14.97
2023-03-10T12:10:50.693Z,15.28
2023-03-10T12:15:59.782Z,15.47
2023-03-10T12:21:15.477Z,15.68
2023-03-10T12:26:55.449Z,16.05
2023-03-10T12:32:01.358Z,16.17
2023-03-10T12:37:08.926Z,16.25
2023-03-10T12:42:30.700Z,16.31
2023-03-10T12:47:48.139Z,16.03
2023-03-10T12:53:00.216Z,16.00
2023-03-10T12:58:09.780Z,16.06
2023-03-10T13:03:25.782Z,15.85
2023-03-10T13:08:35.935Z,15.77
2023-03-10T13:13:41.056Z,15.58
2023-03-10T13:18:49.709Z,15.59
2023-03-10T13:23:53.633Z,16.11
2023-03-10T13:28:59.377Z,15.93
2023-03-10T13:34:15.353Z,16.17
2023-03-10T13:39:24.647Z,16.21
2023-03-10T13:44:33.594Z,16.25
2023-03-10T13:49:39.321Z,15.95
2023-03-10T13:54:44.018Z,15.80
2023-03-10T13:59:48.598Z,15.86
2023-03-10T14:04:55.719Z,15.67
2023-03-10T14:10:15.090Z,15.61
2023-03-10T14:15:24.576Z,15.41
2023-03-10T14:20:31.346Z,15.26
2023-03-10T14:25:35.377Z,15.33
2023-03-10T14:30:40.327Z,15.11
2023-03-10T14:35:46.622Z,15.19
2023-03-10T14:40:53.227Z,14.98
2023-03-10T14:45:58.655Z,14.84
2023-03-10T14:51:06.299Z,14.51
2023-03-10T14:56:14.954Z,14.49
2023-03-10T15:01:20.497Z,14.35
2023-03-10T15:06:25.950Z,14.32
2023-03-10T15:11:36.885Z,14.30
2023-03-10T15:16:41.356Z,14.21
2023-03-10T15:21:46.909Z,14.22
2023-03-10T15:26:51.585Z,14.19
2023-03-10T15:31:55.410Z,14.09
2023-03-10T15:37:01.133Z,13.96
2023-03-10T15:42:05.236Z,13.82
2023-03-10T15:47:09.106Z,13.67
2023-03-10T15:52:14.898Z,13.50
2023-03-10T15:57:18.788Z,13.39
2023-03-10T16:02:23.007Z,13.27
2023-03-10T16:07:28.280Z,13.18
2023-03-10T16:12:32.220Z,13.09
2023-03-10T16:17:36.509Z,12.98
2023-03-10T16:22:43.248Z,12.83
2023-03-10T16:27:48.074Z,12.65
2023-03-10T16:32:52.065Z,12.55
2023-03-10T16:37:57.301Z,12.31
2023-03-10T16:43:01.466Z,12.12
2023-03-10T16:48:05.873Z,11.85
2023-03-10T16:53:11.125Z,11.62
2023-03-10T16:58:14.976Z,11.33
2023-03-10T17:03:19.027Z,11.13
2023-03-10T17:08:24.505Z,10.94
2023-03-10T17:13:29.071Z,10.76
2023-03-10T17:18:32.964Z,10.60
2023-03-10T17:23:38.365Z,10.55
2023-03-10T17:28:43.584Z,10.34
2023-03-10T17:33:47.847Z,10.26
2023-03-10T17:38:54.942Z,10.13
2023-03-10T17:43:59.614Z,10.02
2023-03-10T17:49:03.523Z,9.77
2023-03-10T17:54:08.923Z,9.59
2023-03-10T17:59:14.264Z,9.47
2023-03-10T18:04:18.353Z,9.44
2023-03-10T18:09:23.749Z,9.39
2023-03-10T18:14:27.985Z,9.44
2023-03-10T18:19:32.152Z,9.48
2023-03-10T18:24:39.146Z,9.53
2023-03-10T18:29:43.416Z,9.57
2023-03-10T18:34:47.418Z,9.61
2023-03-10T18:39:53.245Z,9.58
2023-03-10T18:44:57.574Z,9.59
2023-03-10T18:50:01.700Z,9.59
2023-03-10T18:55:07.885Z,9.64
2023-03-10T19:00:14.824Z,9.67
2023-03-10T19:05:19.256Z,9.70
2023-03-10T19:10:24.686Z,9.78
2023-03-10T19:15:28.559Z,9.86
2023-03-10T19:20:32.480Z,9.90
2023-03-10T19:25:37.786Z,9.93
2023-03-10T19:30:43.912Z,9.90
2023-03-10T19:35:48.036Z,9.95
2023-03-10T19:40:53.785Z,9.97
2023-03-10T19:46:02.211Z,10.02
2023-03-10T19:51:07.307Z,10.06
2023-03-10T19:56:12.590Z,10.11
2023-03-10T20:01:17.850Z,10.16
2023-03-10T20:06:22.520Z,10.20
2023-03-10T20:11:27.774Z,10.23
2023-03-10T20:16:32.792Z,10.26
2023-03-10T20:21:36.980Z,10.27
2023-03-10T20:26:42.184Z,10.29
2023-03-10T20:31:46.424Z,10.26
2023-03-10T20:36:50.352Z,10.21
2023-03-10T20:41:55.792Z,10.12
2023-03-10T20:47:00.394Z,10.01
2023-03-10T20:52:04.964Z,9.81
2023-03-10T20:57:10.207Z,9.55
2023-03-10T21:02:15.893Z,9.27
2023-03-10T21:07:20.243Z,9.09
2023-03-10T21:12:25.488Z,8.89
2023-03-10T21:17:29.368Z,8.79
2023-03-10T21:22:35.339Z,8.65
2023-03-10T21:27:40.644Z,8.69
2023-03-10T21:32:44.845Z,8.68
2023-03-10T21:37:49.480Z,8.67
2023-03-10T21:42:54.697Z,8.71
2023-03-10T21:47:58.781Z,8.67
2023-03-10T21:53:02.732Z,8.56
2023-03-10T21:58:08.228Z,8.48
2023-03-10T22:03:12.098Z,8.37
2023-03-10T22:08:16.000Z,8.34
2023-03-10T22:13:21.443Z,8.18
2023-03-10T22:18:25.530Z,8.10
2023-03-10T22:23:29.686Z,7.98
2023-03-10T22:28:35.017Z,7.95
2023-03-10T22:33:39.179Z,7.87
2023-03-10T22:38:43.039Z,7.83
2023-03-10T22:43:48.464Z,7.81
2023-03-10T22:48:52.913Z,7.71
2023-03-10T22:53:57.110Z,7.61
2023-03-10T22:59:04.113Z,7.42
2023-03-10T23:04:08.098Z,7.36
2023-03-10T23:09:12.204Z,7.33
2023-03-10T23:14:17.814Z,7.26
2023-03-10T23:19:22.080Z,7.08
2023-03-10T23:24:26.193Z,7.06
2023-03-10T23:29:31.423Z,7.18
2023-03-10T23:34:35.438Z,7.23
2023-03-10T23:39:39.528Z,7.26
2023-03-10T23:44:45.295Z,7.37
2023-03-10T23:49:49.718Z,7.47
2023-03-10T23:54:53.995Z,7.53
2023-03-10T23:59:59.616Z,7.60
